Time;durP1;ratioP1;P1;durP2;ratioP2;P2;SDS_P1;SDS_P2;PMS_P1;PMS_P2;Temp;Humidity;BMP_temperature;BMP_pressure;BME280_temperature;BME280_humidity;BME280_pressure;Samples;Min_cycle;Max_cycle;Signal;HPM_P1;HPM_P2
2021/06/11 00:00:52;;;;;;;62.55;39.72;;;13.10;99.90;;;;;;5010716;28;20038;-90
2021/06/11 00:03:22;;;;;;;63.75;39.53;;;13.10;99.90;;;;;;5013206;28;20543;-88
2021/06/11 00:05:49;;;;;;;66.00;41.15;;;13.20;99.90;;;;;;5012540;28;20050;-90
2021/06/11 00:08:16;;;;;;;70.18;41.92;;;13.30;99.90;;;;;;4993412;28;20062;-91
2021/06/11 00:10:45;;;;;;;70.72;44.13;;;13.30;99.90;;;;;;4985822;28;20049;-90
2021/06/11 00:13:12;;;;;;;72.13;44.08;;;13.30;99.90;;;;;;4995739;28;20464;-90
2021/06/11 00:15:39;;;;;;;71.75;44.00;;;13.30;99.90;;;;;;4991951;28;20126;-88
2021/06/11 00:18:06;;;;;;;69.47;42.45;;;13.30;99.90;;;;;;4975742;28;20114;-89
2021/06/11 00:20:33;;;;;;;67.03;41.38;;;13.40;99.90;;;;;;4991250;28;20073;-89
2021/06/11 00:23:02;;;;;;;62.50;40.53;;;13.40;99.90;;;;;;4991712;28;20085;-89
2021/06/11 00:25:29;;;;;;;59.95;40.92;;;13.40;99.90;;;;;;4992642;28;20066;-90
2021/06/11 00:28:01;;;;;;;67.40;41.95;;;13.30;99.90;;;;;;4993801;28;20112;-90
2021/06/11 00:30:29;;;;;;;65.53;42.00;;;13.30;99.90;;;;;;4989759;28;20050;-90
2021/06/11 00:32:57;;;;;;;58.97;39.97;;;13.40;99.90;;;;;;5011081;28;20046;-91
2021/06/11 00:35:24;;;;;;;63.35;39.75;;;13.40;99.90;;;;;;5011018;28;20427;-89
2021/06/11 00:37:51;;;;;;;56.28;38.90;;;13.40;99.90;;;;;;4977606;28;20136;-90
2021/06/11 00:40:19;;;;;;;60.33;41.50;;;13.50;99.90;;;;;;5012083;28;20052;-90
2021/06/11 00:42:46;;;;;;;58.85;39.60;;;13.50;99.90;;;;;;5011912;28;20054;-90
2021/06/11 00:45:13;;;;;;;59.22;40.83;;;13.40;99.90;;;;;;4995551;28;20065;-90
2021/06/11 00:47:45;;;;;;;62.22;40.70;;;13.40;99.90;;;;;;4986823;28;20136;-88
2021/06/11 00:50:15;;;;;;;60.67;41.38;;;13.30;99.90;;;;;;4997268;28;20464;-89
2021/06/11 00:52:45;;;;;;;64.97;43.80;;;13.30;99.90;;;;;;4995126;28;20065;-88
2021/06/11 00:55:14;;;;;;;59.67;41.40;;;13.30;99.90;;;;;;4991258;28;20034;-90
2021/06/11 00:57:44;;;;;;;56.50;39.78;;;13.30;99.90;;;;;;4963008;28;20503;-92
2021/06/11 01:00:16;;;;;;;59.95;40.67;;;13.30;99.90;;;;;;5010033;28;20050;-88
2021/06/11 01:02:43;;;;;;;54.47;38.28;;;13.30;99.90;;;;;;4997305;28;20100;-89
2021/06/11 01:05:11;;;;;;;53.67;37.45;;;13.30;99.90;;;;;;4991178;28;20073;-91
2021/06/11 01:07:41;;;;;;;57.00;37.92;;;13.20;99.90;;;;;;4976365;28;20065;-92
2021/06/11 01:10:09;;;;;;;56.33;38.25;;;13.20;99.90;;;;;;4991181;28;20074;-91
2021/06/11 01:12:37;;;;;;;49.75;35.72;;;13.20;99.90;;;;;;5003929;28;20100;-91
2021/06/11 01:15:07;;;;;;;51.42;36.42;;;13.20;99.90;;;;;;4975622;28;20129;-91
2021/06/11 01:17:34;;;;;;;53.40;36.20;;;13.10;99.90;;;;;;4989101;28;20074;-90
2021/06/11 01:20:08;;;;;;;57.25;38.15;;;13.10;99.90;;;;;;4990836;28;20052;-92
2021/06/11 01:22:47;;;;;;;62.75;40.08;;;13.10;99.90;;;;;;4992838;28;20129;-91
2021/06/11 01:25:57;;;;;;;61.45;39.47;;;13.10;99.90;;;;;;4994085;28;20752;-91
2021/06/11 01:28:27;;;;;;;61.70;39.65;;;13.10;99.90;;;;;;4996279;28;20408;-92
2021/06/11 01:30:58;;;;;;;56.72;39.22;;;13.10;99.90;;;;;;5010880;28;20181;-91
2021/06/11 01:33:32;;;;;;;59.53;39.97;;;13.10;99.90;;;;;;4987184;28;20340;-91
2021/06/11 01:36:06;;;;;;;59.17;39.03;;;13.10;99.90;;;;;;4995520;28;20114;-90
2021/06/11 01:38:41;;;;;;;57.63;39.80;;;13.10;99.90;;;;;;4987161;28;20724;-91
2021/06/11 01:41:12;;;;;;;60.05;39.85;;;13.10;99.90;;;;;;4979087;28;20424;-92
2021/06/11 01:43:49;;;;;;;59.07;39.37;;;13.10;99.90;;;;;;4978799;28;20046;-92
2021/06/11 01:46:20;;;;;;;61.17;39.80;;;13.10;99.90;;;;;;5002282;28;20420;-91
2021/06/11 01:48:48;;;;;;;61.22;39.67;;;13.00;99.90;;;;;;5016477;28;20157;-93
2021/06/11 01:51:16;;;;;;;55.45;38.78;;;13.00;99.90;;;;;;5015188;28;20142;-92
2021/06/11 01:53:51;;;;;;;61.78;40.63;;;13.00;99.90;;;;;;4997502;28;20419;-92
2021/06/11 01:56:21;;;;;;;68.82;41.05;;;12.90;99.90;;;;;;5015490;28;20112;-90
2021/06/11 01:58:51;;;;;;;67.95;39.67;;;12.90;99.90;;;;;;5017534;28;20129;-94
2021/06/11 02:01:24;;;;;;;65.85;41.05;;;12.90;99.90;;;;;;5016273;28;20129;-94
2021/06/11 02:03:52;;;;;;;66.60;41.92;;;12.80;99.90;;;;;;5010318;28;21046;-93
2021/06/11 02:06:21;;;;;;;56.90;40.28;;;12.90;99.90;;;;;;5003136;28;20081;-92
2021/06/11 02:08:51;;;;;;;64.15;40.90;;;12.90;99.90;;;;;;4990468;28;20384;-92
2021/06/11 02:11:19;;;;;;;63.88;41.70;;;12.90;99.90;;;;;;4989189;28;20463;-92
2021/06/11 02:13:49;;;;;;;57.40;39.55;;;12.90;99.90;;;;;;4997863;28;20077;-92
2021/06/11 02:16:19;;;;;;;66.55;41.10;;;12.90;99.90;;;;;;5012735;28;20046;-89
2021/06/11 02:18:47;;;;;;;58.60;38.15;;;12.90;99.90;;;;;;5008593;28;20042;-93
2021/06/11 02:21:15;;;;;;;58.63;39.17;;;12.80;99.90;;;;;;4993735;28;20042;-92
2021/06/11 02:23:42;;;;;;;61.70;40.80;;;12.80;99.90;;;;;;4980231;28;20479;-91
2021/06/11 02:26:12;;;;;;;60.03;39.67;;;12.70;99.90;;;;;;5003839;28;20073;-90
2021/06/11 02:28:40;;;;;;;58.80;38.85;;;12.70;99.90;;;;;;5008735;28;20148;-91
2021/06/11 02:31:07;;;;;;;64.30;40.72;;;12.70;99.90;;;;;;5002615;28;20085;-92
2021/06/11 02:33:35;;;;;;;57.00;38.63;;;12.70;99.90;;;;;;4999109;28;20060;-91
2021/06/11 02:36:03;;;;;;;58.38;37.40;;;12.60;99.90;;;;;;5016355;28;20046;-92
2021/06/11 02:38:30;;;;;;;58.35;36.80;;;12.60;99.90;;;;;;5004797;28;20464;-91
2021/06/11 02:41:01;;;;;;;56.60;35.75;;;12.50;99.90;;;;;;5005518;28;20042;-93
2021/06/11 02:43:30;;;;;;;57.20;36.83;;;12.40;99.90;;;;;;5011699;28;20109;-92
2021/06/11 02:46:14;;;;;;;51.95;35.47;;;12.30;99.90;;;;;;5013677;28;20074;-91
2021/06/11 02:48:48;;;;;;;56.47;37.10;;;12.30;99.90;;;;;;5016080;28;20062;-91
2021/06/11 02:51:21;;;;;;;63.38;40.38;;;12.40;99.90;;;;;;5005073;28;20153;-90
2021/06/11 02:53:54;;;;;;;63.38;40.90;;;12.40;99.90;;;;;;5015513;28;20217;-90
2021/06/11 02:56:44;;;;;;;66.28;43.13;;;12.50;99.90;;;;;;4995624;28;20050;-92
2021/06/11 02:59:18;;;;;;;69.43;44.47;;;12.60;99.90;;;;;;4997431;28;20054;-89
2021/06/11 03:01:51;;;;;;;72.45;45.35;;;12.70;99.90;;;;;;4991479;28;20114;-90
2021/06/11 03:04:21;;;;;;;77.18;44.88;;;12.70;99.90;;;;;;5008407;28;20133;-89
2021/06/11 03:06:51;;;;;;;75.30;45.17;;;12.70;99.90;;;;;;4985147;28;20060;-90
2021/06/11 03:09:20;;;;;;;75.20;45.47;;;12.70;99.90;;;;;;5014849;28;20112;-94
2021/06/11 03:11:52;;;;;;;64.10;43.40;;;12.80;99.90;;;;;;5016343;28;20053;-92
2021/06/11 03:14:20;;;;;;;69.93;44.67;;;12.80;99.90;;;;;;5018516;28;20487;-92
2021/06/11 03:16:50;;;;;;;67.38;41.95;;;12.70;99.90;;;;;;5021912;28;20109;-93
2021/06/11 03:19:22;;;;;;;61.45;40.47;;;12.60;99.90;;;;;;5011124;28;20046;-93
2021/06/11 03:21:54;;;;;;;59.88;39.55;;;12.50;99.90;;;;;;5020849;28;20049;-92
2021/06/11 03:24:43;;;;;;;56.53;38.05;;;12.50;99.90;;;;;;5011531;28;20106;-93
2021/06/11 03:27:17;;;;;;;57.95;39.00;;;12.40;99.90;;;;;;4987437;28;20038;-91
2021/06/11 03:29:51;;;;;;;57.92;37.83;;;12.30;99.90;;;;;;5020597;28;20053;-94
2021/06/11 03:32:42;;;;;;;59.47;39.17;;;12.30;99.90;;;;;;5020372;28;20042;-92
2021/06/11 03:35:17;;;;;;;60.42;38.78;;;12.30;99.90;;;;;;5010287;28;20042;-92
2021/06/11 03:37:51;;;;;;;66.22;41.08;;;12.30;99.90;;;;;;5014940;28;20046;-91
2021/06/11 03:40:26;;;;;;;63.35;39.95;;;12.30;99.90;;;;;;4991568;28;20326;-92
2021/06/11 03:43:01;;;;;;;58.95;39.50;;;12.30;99.90;;;;;;5013513;28;20046;-92
2021/06/11 03:45:30;;;;;;;64.45;40.53;;;12.40;99.90;;;;;;5006755;28;20359;-91
2021/06/11 03:48:02;;;;;;;60.75;39.35;;;12.40;99.90;;;;;;5021736;28;20045;-91
2021/06/11 03:50:32;;;;;;;54.97;39.20;;;12.40;99.90;;;;;;5015791;28;20116;-91
2021/06/11 03:53:03;;;;;;;59.70;40.22;;;12.40;99.90;;;;;;5005958;28;20104;-93
2021/06/11 03:55:45;;;;;;;57.05;39.47;;;12.40;99.90;;;;;;5015458;28;20455;-92
2021/06/11 03:58:33;;;;;;;56.45;37.97;;;12.40;99.90;;;;;;5010644;28;20695;-91
2021/06/11 04:01:24;;;;;;;62.85;40.28;;;12.50;99.90;;;;;;4987472;28;20054;-93
2021/06/11 04:03:55;;;;;;;58.85;39.78;;;12.50;99.90;;;;;;5016244;28;20463;-90
2021/06/11 04:06:39;;;;;;;59.95;39.83;;;12.50;99.90;;;;;;5018282;28;20050;-91
2021/06/11 04:09:14;;;;;;;59.83;40.42;;;12.50;99.90;;;;;;5003352;28;20078;-90
2021/06/11 04:11:46;;;;;;;57.58;39.58;;;12.50;99.90;;;;;;5010777;28;20475;-91
2021/06/11 04:14:34;;;;;;;59.08;37.50;;;12.50;99.90;;;;;;4984569;28;20050;-92
2021/06/11 04:17:04;;;;;;;61.13;38.25;;;12.50;99.90;;;;;;5000129;28;20054;-93
2021/06/11 04:19:48;;;;;;;58.33;38.60;;;12.40;99.90;;;;;;4996417;28;20516;-92
2021/06/11 04:22:23;;;;;;;54.65;37.20;;;12.40;99.90;;;;;;4985424;28;20069;-92
2021/06/11 04:25:38;;;;;;;57.42;37.90;;;12.40;99.90;;;;;;5000964;28;20062;-92
2021/06/11 04:28:18;;;;;;;53.53;37.10;;;12.50;99.90;;;;;;5010042;28;20054;-92
2021/06/11 04:30:45;;;;;;;56.30;38.90;;;12.50;99.90;;;;;;4992104;28;20050;-93
2021/06/11 04:33:30;;;;;;;54.03;36.45;;;12.50;99.90;;;;;;5020567;28;20105;-92
2021/06/11 04:36:07;;;;;;;51.08;36.53;;;12.60;99.90;;;;;;5024769;28;20053;-93
2021/06/11 04:39:15;;;;;;;55.13;37.60;;;12.60;99.90;;;;;;5004524;28;20046;-92
2021/06/11 04:41:44;;;;;;;53.13;37.75;;;12.70;99.90;;;;;;4988848;28;20046;-93
2021/06/11 04:44:39;;;;;;;50.20;36.92;;;12.80;99.90;;;;;;4991251;28;20065;-92
2021/06/11 04:47:19;;;;;;;45.88;34.38;;;12.80;99.90;;;;;;5020348;28;20073;-92
2021/06/11 04:49:57;;;;;;;46.78;32.08;;;12.90;99.90;;;;;;5002129;28;20177;-93
2021/06/11 04:52:31;;;;;;;44.03;32.75;;;12.90;99.90;;;;;;5017961;28;20478;-93
2021/06/11 04:55:08;;;;;;;45.08;33.65;;;12.90;99.90;;;;;;4977923;28;20530;-92
2021/06/11 04:57:37;;;;;;;42.00;32.78;;;13.00;99.90;;;;;;4974163;28;20080;-91
2021/06/11 05:00:06;;;;;;;39.85;32.00;;;13.00;99.90;;;;;;5010013;28;20049;-92
2021/06/11 05:03:15;;;;;;;39.28;31.08;;;13.10;99.90;;;;;;5007410;28;20392;-92
2021/06/11 05:05:43;;;;;;;37.40;28.45;;;13.20;99.90;;;;;;5000919;28;20053;-93
2021/06/11 05:08:10;;;;;;;34.15;27.90;;;13.30;99.90;;;;;;4982334;28;20051;-89
2021/06/11 05:10:39;;;;;;;34.40;27.27;;;13.30;99.90;;;;;;5012258;28;20430;-90
2021/06/11 05:13:06;;;;;;;33.30;29.00;;;13.40;99.90;;;;;;4996401;28;20054;-90
2021/06/11 05:15:34;;;;;;;35.97;28.67;;;13.50;99.90;;;;;;5006698;28;20049;-91
2021/06/11 05:18:10;;;;;;;37.67;29.75;;;13.60;99.90;;;;;;5004158;28;20081;-91
2021/06/11 05:20:40;;;;;;;42.63;32.45;;;13.80;99.90;;;;;;5009164;28;20042;-93
2021/06/11 05:23:09;;;;;;;37.58;29.70;;;14.00;99.90;;;;;;4998133;28;20046;-91
2021/06/11 05:25:38;;;;;;;35.80;29.77;;;14.10;99.90;;;;;;4990360;28;20050;-91
2021/06/11 05:28:05;;;;;;;34.40;28.83;;;14.30;99.90;;;;;;4995353;28;20058;-91
2021/06/11 05:30:34;;;;;;;31.15;26.63;;;14.30;99.90;;;;;;4997719;28;21091;-91
2021/06/11 05:33:02;;;;;;;33.80;26.15;;;14.40;99.90;;;;;;4998924;28;20115;-91
2021/06/11 05:35:30;;;;;;;26.38;22.33;;;14.50;99.90;;;;;;5001166;28;20065;-91
2021/06/11 05:37:58;;;;;;;25.10;22.45;;;14.60;99.90;;;;;;5005186;28;20050;-92
2021/06/11 05:40:25;;;;;;;25.42;22.08;;;14.70;99.90;;;;;;5013020;28;20053;-90
2021/06/11 05:42:53;;;;;;;24.45;21.85;;;14.80;99.90;;;;;;5015313;28;20057;-93
2021/06/11 05:45:20;;;;;;;23.92;20.00;;;14.90;99.90;;;;;;5014959;28;20050;-89
2021/06/11 05:47:47;;;;;;;25.52;22.27;;;15.00;99.90;;;;;;5007120;28;20083;-90
2021/06/11 05:50:16;;;;;;;22.77;20.38;;;15.20;99.90;;;;;;4977707;28;20611;-91
2021/06/11 05:52:42;;;;;;;21.25;19.05;;;15.30;99.90;;;;;;4967811;28;20117;-91
2021/06/11 05:55:10;;;;;;;21.52;19.23;;;15.40;99.90;;;;;;4985413;28;20097;-92
2021/06/11 05:57:37;;;;;;;22.13;18.88;;;15.60;99.90;;;;;;4995596;28;20050;-91
2021/06/11 06:00:05;;;;;;;19.70;17.77;;;15.70;99.90;;;;;;4988418;28;20142;-91
2021/06/11 06:02:33;;;;;;;20.98;17.60;;;15.90;99.90;;;;;;4981596;28;20061;-92
2021/06/11 06:05:00;;;;;;;19.88;16.67;;;16.10;99.90;;;;;;4991419;28;20076;-89
2021/06/11 06:07:27;;;;;;;23.27;16.15;;;16.30;99.90;;;;;;5018405;28;20479;-92
2021/06/11 06:09:56;;;;;;;17.40;15.55;;;16.60;99.90;;;;;;5000749;28;20093;-89
2021/06/11 06:12:23;;;;;;;17.33;15.48;;;16.90;99.90;;;;;;5013432;28;20503;-90
2021/06/11 06:14:50;;;;;;;16.75;14.95;;;17.20;99.90;;;;;;4994604;28;20356;-90
2021/06/11 06:17:17;;;;;;;17.35;14.20;;;17.60;99.90;;;;;;4976888;28;20468;-91
2021/06/11 06:19:45;;;;;;;15.77;14.05;;;17.80;99.90;;;;;;4991760;28;20088;-92
2021/06/11 06:22:31;;;;;;;13.98;12.57;;;18.10;99.90;;;;;;5013987;28;20049;-92
2021/06/11 06:24:58;;;;;;;14.35;12.85;;;18.50;99.90;;;;;;5002700;28;20053;-92
2021/06/11 06:27:24;;;;;;;13.02;11.73;;;18.90;99.90;;;;;;4997647;28;20152;-91
2021/06/11 06:29:58;;;;;;;12.23;11.13;;;19.20;99.90;;;;;;4987195;28;20058;-90
2021/06/11 06:32:45;;;;;;;14.52;11.70;;;19.50;99.90;;;;;;4976478;28;20050;-90
2021/06/11 06:35:17;;;;;;;12.57;11.23;;;19.60;99.90;;;;;;4992449;28;20058;-89
2021/06/11 06:37:45;;;;;;;12.00;10.73;;;19.70;99.90;;;;;;4969613;28;20061;-90
2021/06/11 06:40:15;;;;;;;16.80;10.77;;;20.10;99.90;;;;;;4944597;29;20066;-90
2021/06/11 06:42:42;;;;;;;15.27;11.15;;;20.40;99.90;;;;;;4968014;28;20091;-91
2021/06/11 06:45:14;;;;;;;12.27;10.95;;;20.50;99.90;;;;;;4965340;28;20129;-93
2021/06/11 06:47:45;;;;;;;15.03;12.00;;;20.40;99.90;;;;;;4963165;28;20098;-92
2021/06/11 06:50:17;;;;;;;13.98;11.10;;;20.50;99.90;;;;;;4970539;28;20055;-91
2021/06/11 06:52:54;;;;;;;;;;;20.60;99.90;;;;;;4960853;28;20122;-94
2021/06/11 06:55:23;;;;;;;11.45;10.35;;;20.70;99.90;;;;;;4966105;28;19930;-92
2021/06/11 06:57:54;;;;;;;10.57;9.50;;;21.00;99.90;;;;;;4977673;28;20173;-92
2021/06/11 07:00:25;;;;;;;11.50;10.00;;;21.40;99.90;;;;;;4978076;28;20076;-92
2021/06/11 07:02:56;;;;;;;9.02;8.18;;;21.90;99.90;;;;;;4968070;28;20111;-93
2021/06/11 07:05:28;;;;;;;9.88;8.68;;;22.30;99.90;;;;;;4973527;28;20459;-93
2021/06/11 07:07:57;;;;;;;8.90;8.07;;;22.70;99.90;;;;;;5008553;28;20132;-93
2021/06/11 07:10:26;;;;;;;9.75;8.75;;;23.00;99.90;;;;;;4988229;28;20076;-90
2021/06/11 07:13:00;;;;;;;9.05;8.20;;;23.50;99.90;;;;;;5002874;28;20054;-90
2021/06/11 07:15:27;;;;;;;10.25;9.07;;;23.60;99.90;;;;;;5003042;28;20054;-90
2021/06/11 07:18:04;;;;;;;10.18;9.27;;;23.50;99.90;;;;;;5004117;28;20125;-93
2021/06/11 07:20:34;;;;;;;10.48;9.32;;;23.60;99.90;;;;;;5004325;28;20069;-92
2021/06/11 07:23:07;;;;;;;13.30;9.45;;;23.80;99.90;;;;;;5015749;28;20113;-90
2021/06/11 07:25:34;;;;;;;10.55;9.55;;;24.10;99.90;;;;;;5001654;28;20110;-89
2021/06/11 07:28:01;;;;;;;11.40;10.30;;;24.40;99.90;;;;;;4999528;28;20050;-89
2021/06/11 07:30:28;;;;;;;12.32;9.50;;;24.80;99.90;;;;;;4999968;28;20104;-90
2021/06/11 07:32:56;;;;;;;11.65;10.55;;;24.90;99.90;;;;;;5012554;28;20136;-91
2021/06/11 07:35:23;;;;;;;10.93;9.77;;;25.00;99.90;;;;;;5009977;28;20148;-90
2021/06/11 07:37:50;;;;;;;11.10;9.32;;;25.20;99.90;;;;;;4986404;28;20050;-93
2021/06/11 07:40:18;;;;;;;27.85;11.40;;;25.30;99.90;;;;;;4990499;28;20066;-91
2021/06/11 07:42:45;;;;;;;13.93;10.48;;;25.60;99.90;;;;;;4964370;28;20079;-89
2021/06/11 07:45:15;;;;;;;11.18;9.93;;;25.90;99.90;;;;;;4979136;28;20050;-90
2021/06/11 07:47:42;;;;;;;11.90;10.30;;;26.20;99.90;;;;;;5001155;28;20145;-90
2021/06/11 07:50:10;;;;;;;9.85;8.95;;;26.20;97.80;;;;;;4999040;28;20077;-91
2021/06/11 07:52:37;;;;;;;12.07;9.82;;;26.40;94.00;;;;;;4994260;28;20075;-91
2021/06/11 07:55:06;;;;;;;9.77;8.88;;;26.70;94.30;;;;;;4994992;28;20140;-92
2021/06/11 07:57:34;;;;;;;10.77;9.73;;;27.00;86.10;;;;;;4998562;28;20128;-90
2021/06/11 08:00:01;;;;;;;11.55;8.90;;;27.00;92.60;;;;;;5002615;28;20512;-92
2021/06/11 08:02:41;;;;;;;11.82;9.25;;;27.40;91.50;;;;;;4979741;28;20058;-92
2021/06/11 08:05:10;;;;;;;11.18;9.10;;;27.20;90.70;;;;;;4978534;28;20392;-90
2021/06/11 08:07:40;;;;;;;10.65;9.63;;;27.10;90.00;;;;;;5001127;28;20121;-88
2021/06/11 08:10:07;;;;;;;10.95;9.85;;;26.90;91.20;;;;;;4967200;28;20050;-90
2021/06/11 08:12:36;;;;;;;10.27;8.35;;;27.00;91.00;;;;;;4976096;28;20781;-91
2021/06/11 08:15:05;;;;;;;13.38;9.02;;;27.60;87.00;;;;;;4999103;28;20125;-91
2021/06/11 08:17:34;;;;;;;15.57;9.85;;;27.90;88.40;;;;;;4996244;28;20227;-91
2021/06/11 08:20:08;;;;;;;13.00;11.48;;;28.20;87.30;;;;;;4999266;28;20081;-92
2021/06/11 08:22:38;;;;;;;11.68;10.63;;;28.10;82.60;;;;;;4989727;28;20137;-91
2021/06/11 08:25:08;;;;;;;12.00;10.85;;;27.40;86.10;;;;;;5011390;28;20045;-90
2021/06/11 08:27:36;;;;;;;11.63;10.45;;;27.50;86.30;;;;;;4997769;28;20050;-90
2021/06/11 08:30:06;;;;;;;10.32;9.10;;;27.30;88.40;;;;;;4982077;28;20093;-92
2021/06/11 08:32:46;;;;;;;10.43;9.43;;;27.50;92.40;;;;;;5006070;28;20054;-91
2021/06/11 08:35:13;;;;;;;10.57;9.57;;;27.50;92.60;;;;;;5013146;28;20069;-89
2021/06/11 08:37:43;;;;;;;9.75;8.85;;;27.80;82.30;;;;;;4993535;28;20447;-90
2021/06/11 08:40:11;;;;;;;12.75;11.45;;;27.70;90.40;;;;;;5011688;28;20165;-92
2021/06/11 08:42:38;;;;;;;13.23;11.95;;;27.50;89.50;;;;;;4998399;28;20423;-91
2021/06/11 08:45:11;;;;;;;10.70;9.60;;;27.50;84.90;;;;;;4997807;28;20137;-90
2021/06/11 08:47:43;;;;;;;10.98;9.90;;;27.70;87.90;;;;;;4987637;28;20088;-91
2021/06/11 08:50:11;;;;;;;16.58;9.32;;;28.40;84.80;;;;;;4987949;28;20058;-91
2021/06/11 08:52:46;;;;;;;9.93;9.05;;;28.80;85.40;;;;;;4991086;28;20054;-91
2021/06/11 08:55:18;;;;;;;10.13;9.25;;;28.60;77.20;;;;;;5007544;28;20502;-90
2021/06/11 08:57:46;;;;;;;10.70;9.70;;;28.30;77.00;;;;;;5013680;28;20039;-89
2021/06/11 09:00:13;;;;;;;11.60;10.15;;;28.10;77.30;;;;;;4991835;28;20104;-93
2021/06/11 09:03:11;;;;;;;12.70;11.38;;;27.70;77.70;;;;;;4999375;28;20132;-93
2021/06/11 09:05:45;;;;;;;11.80;10.70;;;27.50;78.30;;;;;;5012711;28;20057;-92
2021/06/11 09:08:27;;;;;;;11.27;10.27;;;27.50;80.60;;;;;;5008596;28;20085;-93
2021/06/11 09:11:30;;;;;;;11.98;10.77;;;27.60;79.70;;;;;;4997740;28;20062;-92
2021/06/11 09:14:03;;;;;;;12.45;11.02;;;27.50;83.90;;;;;;4965851;28;20118;-92
2021/06/11 09:16:55;;;;;;;11.55;10.45;;;27.60;78.20;;;;;;4982812;28;20334;-94
2021/06/11 09:19:27;;;;;;;10.68;9.57;;;27.60;80.60;;;;;;5007530;28;20042;-91
2021/06/11 09:22:34;;;;;;;10.95;9.85;;;28.00;82.60;;;;;;4978329;28;20046;-93
2021/06/11 09:25:45;;;;;;;12.60;9.52;;;28.70;81.90;;;;;;5012642;28;20082;-91
2021/06/11 09:28:14;;;;;;;12.70;11.43;;;29.30;73.90;;;;;;5004280;28;20053;-92
2021/06/11 09:30:44;;;;;;;12.05;9.90;;;29.10;69.30;;;;;;4999248;28;20125;-92
2021/06/11 09:33:20;;;;;;;10.60;9.60;;;29.20;71.50;;;;;;5021712;28;20046;-92
2021/06/11 09:35:59;;;;;;;10.32;9.23;;;29.50;72.40;;;;;;4965032;28;20069;-91
2021/06/11 09:38:31;;;;;;;12.70;11.40;;;29.60;73.70;;;;;;4993592;28;20046;-92
2021/06/11 09:41:02;;;;;;;11.95;9.95;;;29.70;66.10;;;;;;5013099;28;20125;-91
2021/06/11 09:43:34;;;;;;;12.52;11.02;;;29.70;67.40;;;;;;4999618;28;20054;-93
2021/06/11 09:46:12;;;;;;;11.93;10.82;;;29.40;65.00;;;;;;4996243;28;20050;-92
2021/06/11 09:48:49;;;;;;;12.65;10.10;;;29.40;64.60;;;;;;4982646;28;20112;-91
2021/06/11 09:51:27;;;;;;;12.73;11.13;;;29.90;64.70;;;;;;4991775;28;20062;-94
2021/06/11 09:53:54;;;;;;;11.38;10.38;;;30.60;59.20;;;;;;4997636;28;20077;-92
2021/06/11 09:56:26;;;;;;;10.18;9.15;;;30.80;59.20;;;;;;5015188;28;20066;-94
2021/06/11 09:58:55;;;;;;;9.38;8.50;;;31.10;56.30;;;;;;5016301;28;20077;-92
2021/06/11 10:01:40;;;;;;;;;;;;;;;;;;;;;
2021/06/11 10:04:10;;;;;;;9.88;8.88;;;31.20;56.30;;;;;;5017704;28;20088;-92
2021/06/11 10:06:48;;;;;;;9.38;8.18;;;31.80;57.10;;;;;;5008551;28;20120;-93
2021/06/11 10:09:15;;;;;;;9.77;7.50;;;32.10;54.00;;;;;;4986421;28;20066;-92
2021/06/11 10:11:43;;;;;;;8.32;7.53;;;31.90;51.80;;;;;;4972003;28;20046;-94
2021/06/11 10:14:10;;;;;;;8.18;7.40;;;32.10;56.00;;;;;;5001377;28;20486;-92
2021/06/11 10:16:51;;;;;;;9.70;8.48;;;32.60;50.40;;;;;;4994837;28;20050;-92
2021/06/11 10:19:26;;;;;;;8.55;7.63;;;32.20;47.60;;;;;;5014894;28;20050;-93
2021/06/11 10:22:06;;;;;;;12.75;7.05;;;31.50;50.40;;;;;;5010993;28;20515;-93
2021/06/11 10:24:43;;;;;;;8.57;6.85;;;30.70;50.80;;;;;;5018889;28;20050;-93
2021/06/11 10:27:11;;;;;;;9.88;8.43;;;30.40;52.30;;;;;;4990818;28;20106;-94
2021/06/11 10:29:39;;;;;;;8.70;7.95;;;29.80;51.90;;;;;;5023733;28;20077;-92
2021/06/11 10:32:07;;;;;;;9.23;8.43;;;29.00;57.40;;;;;;4998591;28;20220;-92
2021/06/11 10:35:10;;;;;;;8.73;7.82;;;29.00;56.00;;;;;;5009824;28;20096;-91
2021/06/11 10:37:44;;;;;;;8.13;7.38;;;30.10;55.20;;;;;;4916800;29;20467;-91
2021/06/11 10:40:22;;;;;;;12.93;8.98;;;31.00;52.80;;;;;;4999628;28;20057;-92
2021/06/11 10:42:52;;;;;;;9.02;8.18;;;31.80;51.40;;;;;;5005999;28;20348;-92
2021/06/11 10:45:45;;;;;;;8.48;7.15;;;31.40;50.50;;;;;;5000530;28;20497;-92
2021/06/11 10:48:17;;;;;;;8.07;7.03;;;30.60;57.40;;;;;;5016837;28;20153;-91
2021/06/11 10:50:50;;;;;;;9.15;7.65;;;30.40;55.50;;;;;;5004215;28;20092;-93
2021/06/11 10:53:46;;;;;;;8.65;7.80;;;31.00;56.10;;;;;;5012633;28;20054;-93
2021/06/11 10:59:38;;;;;;;9.30;8.38;;;30.10;55.50;;;;;;4984881;28;20042;-91
2021/06/11 11:03:02;;;;;;;9.93;8.35;;;29.10;56.00;;;;;;4981627;28;20051;-92
2021/06/11 11:06:11;;;;;;;;;;;;;;;;;;;;;
2021/06/11 11:09:03;;;;;;;8.70;7.90;;;27.70;59.30;;;;;;5005865;28;20054;-91
2021/06/11 11:11:47;;;;;;;;;;;;;;;;;;;;;
2021/06/11 11:14:37;;;;;;;25.55;8.95;;;27.10;58.80;;;;;;5005328;28;20126;-92
2021/06/11 11:17:05;;;;;;;9.27;7.35;;;28.40;62.30;;;;;;4998318;28;20150;-95
2021/06/11 11:19:58;;;;;;;9.23;6.13;;;30.30;58.00;;;;;;4974335;28;20064;-93
2021/06/11 11:23:03;;;;;;;;;;;;;;;;;;;;;
2021/06/11 11:25:36;;;;;;;9.35;6.22;;;33.40;44.80;;;;;;4976793;28;20273;-92
2021/06/11 11:28:06;;;;;;;7.45;6.70;;;33.80;45.30;;;;;;4972873;28;20051;-94
2021/06/11 11:30:42;;;;;;;7.93;7.22;;;33.90;45.60;;;;;;4986706;28;20046;-92
2021/06/11 11:33:09;;;;;;;7.63;6.93;;;33.40;43.50;;;;;;4980181;28;20054;-92
2021/06/11 11:35:39;;;;;;;8.40;7.47;;;31.50;46.30;;;;;;4975810;28;20073;-91
2021/06/11 11:38:09;;;;;;;9.02;6.45;;;30.00;49.10;;;;;;4994436;28;20046;-95
2021/06/11 11:40:37;;;;;;;7.03;6.35;;;29.30;51.30;;;;;;4993246;28;20356;-91
2021/06/11 11:43:05;;;;;;;9.65;6.65;;;28.70;52.20;;;;;;4998676;28;20120;-93
2021/06/11 11:45:37;;;;;;;8.45;7.55;;;28.20;57.70;;;;;;4981376;28;20042;-90
2021/06/11 11:48:06;;;;;;;8.88;8.05;;;27.90;58.00;;;;;;4969113;28;20054;-93
2021/06/11 11:50:36;;;;;;;11.98;8.13;;;27.60;59.10;;;;;;4995086;28;20050;-93
2021/06/11 11:53:07;;;;;;;7.53;6.75;;;27.40;61.50;;;;;;4997911;28;20141;-94
2021/06/11 11:55:34;;;;;;;7.32;5.82;;;27.30;54.40;;;;;;4983857;28;20145;-92
2021/06/11 11:58:02;;;;;;;8.35;5.90;;;27.30;56.90;;;;;;4979162;28;20047;-92
2021/06/11 12:00:31;;;;;;;7.68;5.30;;;27.60;53.40;;;;;;4989590;28;20156;-91
2021/06/11 12:03:00;;;;;;;7.28;6.57;;;29.10;48.40;;;;;;4982213;28;20050;-92
2021/06/11 12:05:33;;;;;;;10.23;7.72;;;30.80;48.60;;;;;;4976231;28;20046;-92
2021/06/11 12:08:04;;;;;;;8.95;6.55;;;31.60;46.00;;;;;;4966670;28;20055;-93
2021/06/11 12:10:45;;;;;;;9.20;6.40;;;31.50;49.40;;;;;;4999616;28;20046;-92
2021/06/11 12:13:18;;;;;;;10.27;7.07;;;30.60;51.80;;;;;;4990221;28;20050;-93
2021/06/11 12:15:58;;;;;;;9.02;6.75;;;30.50;51.60;;;;;;4986229;28;20054;-93
2021/06/11 12:21:21;;;;;;;9.68;8.00;;;29.40;53.60;;;;;;4968736;28;20046;-92
2021/06/11 12:23:50;;;;;;;8.32;7.60;;;28.40;55.30;;;;;;5006281;28;20050;-93
2021/06/11 12:26:20;;;;;;;9.77;8.30;;;27.90;54.80;;;;;;5005510;28;20057;-91
2021/06/11 12:29:15;;;;;;;10.05;7.88;;;27.60;56.00;;;;;;5005957;28;20060;-92
2021/06/11 12:31:48;;;;;;;8.07;7.28;;;28.30;59.00;;;;;;4986153;28;20489;-93
2021/06/11 12:34:15;;;;;;;8.45;6.97;;;29.10;56.80;;;;;;5004079;28;20050;-93
2021/06/11 12:36:43;;;;;;;11.45;7.30;;;30.60;54.00;;;;;;5005738;28;20093;-94
2021/06/11 12:39:24;;;;;;;;;;;;;;;;;;;;;
2021/06/11 12:41:55;;;;;;;8.27;7.40;;;32.90;47.70;;;;;;5002270;28;20077;-92
2021/06/11 12:44:22;;;;;;;6.95;5.82;;;33.90;43.20;;;;;;4986295;28;20073;-92
2021/06/11 12:46:53;;;;;;;7.95;6.35;;;34.50;44.00;;;;;;4983764;28;20101;-93
2021/06/11 12:49:25;;;;;;;7.00;6.30;;;34.50;43.80;;;;;;4978459;28;20366;-92
2021/06/11 12:51:57;;;;;;;5.80;5.17;;;34.50;42.30;;;;;;4976926;28;20058;-91
2021/06/11 12:54:40;;;;;;;7.50;5.00;;;34.90;42.90;;;;;;4991586;28;20064;-93
2021/06/11 12:57:22;;;;;;;6.22;5.07;;;35.70;42.80;;;;;;4983213;28;20047;-92
2021/06/11 13:00:18;;;;;;;5.45;4.95;;;36.50;39.70;;;;;;4983607;28;20077;-92
2021/06/11 13:02:47;;;;;;;5.35;4.60;;;36.40;38.80;;;;;;4965197;28;20062;-92
2021/06/11 13:05:15;;;;;;;5.15;4.65;;;36.60;36.00;;;;;;5001025;28;20046;-92
2021/06/11 13:08:09;;;;;;;;;;;36.30;38.00;;;;;;4996341;28;20141;-90
2021/06/11 13:11:00;;;;;;;7.45;5.43;;;35.60;37.60;;;;;;4980802;28;19916;-94
2021/06/11 13:13:28;;;;;;;8.43;5.03;;;34.90;38.00;;;;;;4989321;28;20034;-93
2021/06/11 13:15:58;;;;;;;5.88;4.85;;;33.70;41.90;;;;;;4985197;28;20104;-92